Weather at Dhangarhi Airport

Public forecast

Using degrees Celsius for public forecast. Weather courtesy of forecast.io.

Closest aviation weather report (METAR) to Dhangarhi Airport

Report is more than 6 hours old.

Closest report is Pantnagar Airport, 60.6 nm (112.3 km) WNW. Retrieved 2020/09/26 07:00 UTC (11 hours ago):

VIPT 260700Z 02002KT 3000 BR FEW030 SCT100 31/26 Q1004

Closest aviation forecast (TAF) to Dhangarhi Airport

Forecast is more than 12 hours old.

Closest forecast is Pantnagar Airport, 60.6 nm (112.3 km) WNW. Retrieved 2016/07/10 06:00 UTC (4 years ago):

TAF VIPT 100500Z 1006/1015 24005KT 4000 HZ FEW040 SCT100 TEMPO 1010/1015 2000 -TSRA SCT030 FEW035CB BKN090